Terminal Aerodrome Forecast
Issued by NWS

Home | Current Version | Previous Version | Text Only | Print | Product List | Glossary On
Versions: 1 2 3 4 5 6 7 8 9 10 11 12 13 14 15 16 17 18 19 20 21 22 23 24 25 26
000
FTUS45 KGJT 202325
TAFCNY
TAF
KCNY 202325Z 2100/2124 09008KT P6SM FEW110 SCT180
     FM210200 08004KT P6SM FEW100 BKN250
     FM210600 15004KT P6SM SCT100 BKN200
     FM211200 15008KT P6SM VCSH SCT060 BKN090
     FM211800 17012KT P6SM VCSH SCT050 BKN070=

USA.gov is the U.S. government's official web portal to all federal, state and local government web resources and services.